Time;durP1;ratioP1;P1;durP2;ratioP2;P2;SDS_P1;SDS_P2;PMS_P1;PMS_P2;Temp;Humidity;BMP_temperature;BMP_pressure;BME280_temperature;BME280_humidity;BME280_pressure;Samples;Min_cycle;Max_cycle;Signal;HPM_P1;HPM_P2
2023/06/01 00:02:05;;;;;;;14.38;8.75;;;;;;;13.65;100.00;102125.53;5268106;28;20490;-68
2023/06/01 00:04:40;;;;;;;14.57;9.23;;;;;;;13.60;100.00;102124.97;5269992;28;20382;-68
2023/06/01 00:07:11;;;;;;;23.88;11.90;;;;;;;13.55;100.00;102116.38;5269013;28;20033;-68
2023/06/01 00:09:43;;;;;;;20.50;10.77;;;;;;;13.50;100.00;102126.53;5268531;28;20035;-68
2023/06/01 00:12:14;;;;;;;16.85;9.90;;;;;;;13.44;100.00;102125.16;5272197;28;20455;-68
2023/06/01 00:14:46;;;;;;;14.07;8.82;;;;;;;13.41;100.00;102127.19;5269340;28;20020;-68
2023/06/01 00:17:17;;;;;;;15.32;8.80;;;;;;;13.31;100.00;102118.94;5269748;28;20032;-68
2023/06/01 00:19:48;;;;;;;14.95;8.73;;;;;;;13.32;100.00;102125.97;5268326;28;20442;-70
2023/06/01 00:22:20;;;;;;;14.90;9.48;;;;;;;13.20;100.00;102110.72;5269952;28;20020;-68
2023/06/01 00:24:52;;;;;;;15.10;9.65;;;;;;;13.11;100.00;102115.69;5273933;28;20031;-68
2023/06/01 00:27:23;;;;;;;15.45;9.27;;;;;;;13.03;100.00;102118.03;5266960;28;20119;-68
2023/06/01 00:29:55;;;;;;;16.00;9.98;;;;;;;12.94;100.00;102122.22;5275778;28;20032;-68
2023/06/01 00:32:26;;;;;;;15.48;10.35;;;;;;;12.91;100.00;102119.72;5279622;28;20488;-68
2023/06/01 00:34:58;;;;;;;14.57;9.52;;;;;;;12.81;100.00;102120.41;5268857;28;20365;-68
2023/06/01 00:37:29;;;;;;;14.70;10.90;;;;;;;12.78;100.00;102116.13;5270911;28;20024;-68
2023/06/01 00:40:00;;;;;;;15.02;9.50;;;;;;;12.77;100.00;102125.16;5264156;28;20028;-68
2023/06/01 00:42:32;;;;;;;14.07;10.75;;;;;;;12.73;100.00;102123.59;5270230;28;20463;-68
2023/06/01 00:45:05;;;;;;;15.43;10.13;;;;;;;12.70;100.00;102126.50;5276078;28;20562;-68
2023/06/01 00:47:41;;;;;;;15.45;10.43;;;;;;;12.59;100.00;102111.13;5269289;28;20648;-68
2023/06/01 00:50:13;;;;;;;19.50;10.90;;;;;;;12.57;100.00;102121.06;5267295;28;20029;-68
2023/06/01 00:52:47;;;;;;;18.52;10.82;;;;;;;12.51;100.00;102119.63;5261519;28;20028;-68
2023/06/01 00:55:20;;;;;;;;;;;;;;;12.61;100.00;102103.84;5268996;28;20029;-68
2023/06/01 00:57:52;;;;;;;14.43;10.00;;;;;;;12.38;100.00;102113.34;5272785;28;19916;-68
2023/06/01 01:00:26;;;;;;;19.25;11.27;;;;;;;12.36;100.00;102118.78;5265833;28;20044;-68
2023/06/01 01:03:00;;;;;;;21.10;11.73;;;;;;;12.40;100.00;102121.28;5267229;28;20032;-68
2023/06/01 01:05:33;;;;;;;24.48;11.38;;;;;;;12.39;100.00;102122.22;5271696;28;20048;-68
2023/06/01 01:08:24;;;;;;;24.55;11.20;;;;;;;12.32;100.00;102130.66;5269328;28;20382;-68
2023/06/01 01:11:03;;;;;;;21.67;11.80;;;;;;;12.20;100.00;102133.28;5267074;28;20028;-68
2023/06/01 01:13:44;;;;;;;19.75;12.07;;;;;;;12.13;100.00;102130.09;5267780;28;20491;-69
2023/06/01 01:16:33;;;;;;;19.33;12.02;;;;;;;12.15;100.00;102136.22;5271082;28;20042;-68
2023/06/01 01:19:21;;;;;;;19.17;12.98;;;;;;;12.00;100.00;102124.66;5268504;28;20024;-68
2023/06/01 01:22:20;;;;;;;17.23;11.35;;;;;;;11.94;100.00;102130.38;5280770;28;20036;-68
2023/06/01 01:25:04;;;;;;;16.50;10.90;;;;;;;11.83;100.00;102132.81;5273953;28;20111;-68
2023/06/01 01:28:06;;;;;;;18.65;12.35;;;;;;;11.78;100.00;102131.28;5271573;28;20044;-68
2023/06/01 01:30:40;;;;;;;19.65;12.30;;;;;;;11.68;100.00;102131.97;5269744;28;20028;-68
2023/06/01 01:33:12;;;;;;;21.38;12.95;;;;;;;11.67;100.00;102136.44;5271816;28;20098;-68
2023/06/01 01:35:43;;;;;;;19.48;12.45;;;;;;;11.59;100.00;102125.34;5265913;28;20036;-68
2023/06/01 01:38:15;;;;;;;21.08;13.18;;;;;;;11.65;100.00;102134.81;5259639;28;20532;-68
2023/06/01 01:40:46;;;;;;;19.70;12.75;;;;;;;11.54;100.00;102135.44;5273593;28;20032;-68
2023/06/01 01:43:19;;;;;;;20.48;13.68;;;;;;;11.46;100.00;102133.22;5268462;28;20028;-68
2023/06/01 01:45:57;;;;;;;19.08;13.88;;;;;;;11.48;100.00;102141.16;5274014;28;20017;-68
2023/06/01 01:48:35;;;;;;;26.50;13.63;;;;;;;11.36;100.00;102145.44;5265868;28;20536;-68
2023/06/01 01:51:22;;;;;;;22.02;13.68;;;;;;;11.35;100.00;102146.38;5274194;28;20021;-70
2023/06/01 01:53:55;;;;;;;22.25;13.48;;;;;;;11.26;100.00;102144.25;5273399;28;20029;-68
2023/06/01 01:56:27;;;;;;;21.27;14.10;;;;;;;11.19;100.00;102149.09;5265691;28;20035;-68
2023/06/01 01:59:00;;;;;;;21.40;13.60;;;;;;;11.16;100.00;102131.44;5267764;28;20111;-68
2023/06/01 02:01:32;;;;;;;23.58;14.65;;;;;;;11.09;100.00;102140.75;5265566;28;20078;-67
2023/06/01 02:04:07;;;;;;;20.42;14.75;;;;;;;11.05;100.00;102136.53;5262563;28;20045;-68
2023/06/01 02:06:38;;;;;;;20.73;14.15;;;;;;;10.99;100.00;102140.41;5263221;28;20056;-68
2023/06/01 02:09:10;;;;;;;20.80;14.93;;;;;;;10.94;100.00;102138.97;5264448;28;20475;-68
2023/06/01 02:11:41;;;;;;;25.50;15.00;;;;;;;10.88;100.00;102136.66;5265270;28;20097;-68
2023/06/01 02:14:13;;;;;;;22.50;15.30;;;;;;;10.81;100.00;102135.25;5264871;28;20063;-68
2023/06/01 02:16:45;;;;;;;23.38;14.55;;;;;;;10.74;100.00;102135.63;5268139;28;20032;-68
2023/06/01 02:19:17;;;;;;;21.58;13.80;;;;;;;10.70;100.00;102128.72;5269317;28;20036;-68
2023/06/01 02:21:48;;;;;;;22.20;14.70;;;;;;;10.70;100.00;102136.75;5271510;28;20040;-68
2023/06/01 02:24:19;;;;;;;21.17;14.55;;;;;;;10.64;100.00;102134.41;5273923;28;20028;-68
2023/06/01 02:26:55;;;;;;;21.73;13.90;;;;;;;10.61;100.00;102131.91;5268537;28;20036;-68
2023/06/01 02:29:26;;;;;;;21.38;14.15;;;;;;;10.59;100.00;102136.47;5266927;28;20032;-68
2023/06/01 02:31:58;;;;;;;19.20;13.32;;;;;;;10.63;100.00;102140.69;5269832;28;20455;-68
2023/06/01 02:34:29;;;;;;;20.80;14.07;;;;;;;10.60;100.00;102138.19;5267845;28;20509;-68
2023/06/01 02:37:01;;;;;;;22.70;13.23;;;;;;;10.58;100.00;102142.75;5269167;28;20490;-68
2023/06/01 02:39:32;;;;;;;21.73;13.48;;;;;;;10.63;100.00;102140.69;5270342;28;20088;-68
2023/06/01 02:42:05;;;;;;;20.15;13.27;;;;;;;10.61;100.00;102139.06;5268909;28;20375;-68
2023/06/01 02:44:36;;;;;;;21.48;13.57;;;;;;;10.57;100.00;102135.72;5269164;28;20573;-68
2023/06/01 02:47:08;;;;;;;20.02;13.02;;;;;;;10.67;100.00;102131.56;5271110;28;20031;-68
2023/06/01 02:49:39;;;;;;;20.48;13.43;;;;;;;10.58;100.00;102135.63;5272880;28;20025;-68
2023/06/01 02:52:10;;;;;;;19.00;12.60;;;;;;;10.73;100.00;102133.88;5271923;28;20486;-68
2023/06/01 02:54:42;;;;;;;18.80;12.80;;;;;;;10.63;100.00;102126.50;5278332;28;20047;-67
2023/06/01 02:57:13;;;;;;;16.80;12.35;;;;;;;10.70;100.00;102130.53;5276851;28;20032;-68
2023/06/01 02:59:45;;;;;;;20.48;12.50;;;;;;;10.68;100.00;102132.41;5270952;28;20039;-68
2023/06/01 03:02:16;;;;;;;18.80;12.75;;;;;;;10.71;100.00;102124.25;5277640;28;20031;-68
2023/06/01 03:04:48;;;;;;;20.17;12.48;;;;;;;10.69;100.00;102126.16;5274993;28;20075;-67
2023/06/01 03:07:20;;;;;;;19.58;11.80;;;;;;;10.69;100.00;102128.81;5263938;28;20051;-68
2023/06/01 03:09:51;;;;;;;17.13;11.30;;;;;;;10.65;100.00;102140.63;5274411;28;20073;-68
2023/06/01 03:12:23;;;;;;;17.90;10.68;;;;;;;10.63;100.00;102132.69;5278122;28;20032;-68
2023/06/01 03:14:54;;;;;;;20.38;11.10;;;;;;;10.70;100.00;102125.19;5271260;28;20160;-68
2023/06/01 03:17:25;;;;;;;15.98;10.98;;;;;;;10.72;100.00;102125.94;5283178;28;20039;-68
2023/06/01 03:19:57;;;;;;;15.60;11.02;;;;;;;10.65;100.00;102135.28;5273694;28;20021;-68
2023/06/01 03:22:29;;;;;;;17.75;10.07;;;;;;;10.63;100.00;102135.34;5280568;28;20480;-68
2023/06/01 03:25:00;;;;;;;15.90;9.95;;;;;;;10.66;100.00;102143.22;5278462;28;20081;-68
2023/06/01 03:27:31;;;;;;;16.58;10.68;;;;;;;10.61;100.00;102141.75;5286070;28;20027;-68
2023/06/01 03:30:03;;;;;;;16.60;9.90;;;;;;;10.52;100.00;102132.41;5277476;28;20119;-68
2023/06/01 03:32:37;;;;;;;16.20;10.20;;;;;;;10.54;100.00;102141.19;5266630;28;20033;-68
2023/06/01 03:35:10;;;;;;;17.55;10.68;;;;;;;10.55;100.00;102138.44;5266080;28;20039;-68
2023/06/01 03:37:45;;;;;;;15.35;9.73;;;;;;;10.53;100.00;102135.00;5281406;28;20024;-68
2023/06/01 03:40:16;;;;;;;17.20;10.05;;;;;;;10.55;100.00;102135.78;5276940;28;20024;-68
2023/06/01 03:42:48;;;;;;;15.13;9.93;;;;;;;10.59;100.00;102139.16;5272242;28;20052;-68
2023/06/01 03:45:19;;;;;;;16.70;9.75;;;;;;;10.52;100.00;102149.28;5277744;28;20097;-68
2023/06/01 03:47:51;;;;;;;12.95;9.55;;;;;;;10.49;100.00;102145.94;5274777;28;20024;-68
2023/06/01 03:50:22;;;;;;;16.30;9.52;;;;;;;10.41;100.00;102146.34;5277131;28;20073;-68
2023/06/01 03:52:54;;;;;;;16.77;9.50;;;;;;;10.35;100.00;102152.88;5274074;28;20024;-68
2023/06/01 03:55:26;;;;;;;16.25;9.48;;;;;;;10.33;100.00;102144.09;5275700;28;20379;-68
2023/06/01 03:57:58;;;;;;;16.58;9.27;;;;;;;10.31;100.00;102153.13;5268815;28;20024;-68
2023/06/01 04:00:29;;;;;;;15.77;9.63;;;;;;;10.31;100.00;102154.00;5267301;28;20372;-68
2023/06/01 04:03:03;;;;;;;14.10;9.57;;;;;;;10.30;100.00;102154.06;5268652;28;20475;-68
2023/06/01 04:05:36;;;;;;;15.68;8.73;;;;;;;10.32;100.00;102149.53;5267727;28;20110;-68
2023/06/01 04:08:08;;;;;;;16.15;8.85;;;;;;;10.31;100.00;102148.66;5268181;28;20024;-67
2023/06/01 04:10:40;;;;;;;14.07;8.95;;;;;;;10.32;100.00;102146.88;5266698;28;20824;-68
2023/06/01 04:13:11;;;;;;;14.02;8.82;;;;;;;10.35;100.00;102147.53;5267486;28;21455;-68
2023/06/01 04:15:43;;;;;;;14.77;8.98;;;;;;;10.34;100.00;102151.16;5263570;28;20095;-68
2023/06/01 04:18:14;;;;;;;15.70;8.93;;;;;;;10.37;100.00;102152.81;5269457;28;20189;-68
2023/06/01 04:20:45;;;;;;;12.80;8.40;;;;;;;10.36;100.00;102146.63;5276279;28;20385;-68
2023/06/01 04:23:17;;;;;;;13.32;8.43;;;;;;;10.42;100.00;102152.56;5267349;28;20028;-68
2023/06/01 04:25:51;;;;;;;15.75;8.57;;;;;;;10.44;100.00;102148.84;5267397;28;20029;-68
2023/06/01 04:28:24;;;;;;;13.15;8.18;;;;;;;10.38;100.00;102151.88;5271975;28;20028;-68
2023/06/01 04:30:56;;;;;;;15.10;8.80;;;;;;;10.40;100.00;102155.31;5264707;28;20043;-68
2023/06/01 04:33:27;;;;;;;16.15;8.80;;;;;;;10.47;100.00;102155.81;5266103;28;20016;-68
2023/06/01 04:36:00;;;;;;;17.92;8.70;;;;;;;10.37;100.00;102156.34;5267638;28;20024;-68
2023/06/01 04:38:32;;;;;;;13.50;8.68;;;;;;;10.40;100.00;102156.16;5265494;28;20032;-68
2023/06/01 04:41:04;;;;;;;15.90;9.70;;;;;;;10.38;100.00;102165.22;5269061;28;20079;-68
2023/06/01 04:43:39;;;;;;;13.40;8.50;;;;;;;10.39;100.00;102170.47;5267716;28;20016;-68
2023/06/01 04:46:11;;;;;;;12.10;8.70;;;;;;;10.52;100.00;102161.78;5266128;28;20394;-68
2023/06/01 04:48:44;;;;;;;15.32;9.23;;;;;;;10.47;100.00;102167.38;5266510;28;20029;-68
2023/06/01 04:51:19;;;;;;;16.35;9.38;;;;;;;10.50;100.00;102166.34;5268947;28;20028;-68
2023/06/01 04:53:52;;;;;;;13.63;8.98;;;;;;;10.58;100.00;102169.44;5265385;28;20463;-68
2023/06/01 04:56:26;;;;;;;15.35;9.35;;;;;;;10.57;100.00;102162.41;5266247;28;20024;-68
2023/06/01 04:58:57;;;;;;;;;;;;;;;10.72;100.00;102164.22;5265782;28;20021;-68
2023/06/01 05:01:30;;;;;;;15.38;9.95;;;;;;;10.67;100.00;102157.41;5270579;28;20420;-68
2023/06/01 05:04:01;;;;;;;15.55;9.70;;;;;;;10.67;100.00;102163.59;5266285;28;20040;-68
2023/06/01 05:06:33;;;;;;;14.57;9.82;;;;;;;10.73;100.00;102165.06;5273307;28;20048;-68
2023/06/01 05:09:04;;;;;;;16.13;10.05;;;;;;;10.73;100.00;102151.72;5270371;28;20027;-68
2023/06/01 05:11:36;;;;;;;17.58;9.82;;;;;;;10.81;100.00;102151.28;5268032;28;20105;-68
2023/06/01 05:14:07;;;;;;;17.17;10.13;;;;;;;10.86;100.00;102150.06;5263935;28;20039;-68
2023/06/01 05:16:39;;;;;;;16.42;10.43;;;;;;;11.00;100.00;102149.28;5263171;28;20107;-68
2023/06/01 05:19:10;;;;;;;22.40;11.20;;;;;;;11.11;100.00;102152.19;5267883;28;20033;-68
2023/06/01 05:21:43;;;;;;;16.20;10.80;;;;;;;11.12;100.00;102156.59;5265231;28;20020;-68
2023/06/01 05:24:14;;;;;;;18.55;10.07;;;;;;;11.15;100.00;102153.75;5265863;28;20105;-68
2023/06/01 05:26:46;;;;;;;14.50;9.73;;;;;;;11.25;100.00;102159.41;5266691;28;20832;-68
2023/06/01 05:29:17;;;;;;;16.42;9.68;;;;;;;11.43;100.00;102156.59;5262683;28;20394;-68
2023/06/01 05:31:50;;;;;;;15.93;10.13;;;;;;;11.41;100.00;102162.06;5268672;28;20047;-68
2023/06/01 05:34:22;;;;;;;16.95;10.45;;;;;;;11.37;100.00;102156.03;5262330;28;20100;-68
2023/06/01 05:36:53;;;;;;;17.13;10.70;;;;;;;11.40;100.00;102154.13;5270266;28;20222;-68
2023/06/01 05:39:27;;;;;;;14.90;10.05;;;;;;;11.45;100.00;102163.59;5270480;28;20445;-68
2023/06/01 05:41:59;;;;;;;21.23;11.13;;;;;;;11.42;100.00;102144.22;5266546;28;20025;-69
2023/06/01 05:44:31;;;;;;;19.45;10.38;;;;;;;11.40;100.00;102146.09;5265286;28;20033;-68
2023/06/01 05:47:03;;;;;;;19.65;10.45;;;;;;;11.46;100.00;102151.94;5268359;28;20051;-68
2023/06/01 05:49:35;;;;;;;15.05;10.07;;;;;;;11.50;100.00;102148.13;5267394;28;20107;-69
2023/06/01 05:52:06;;;;;;;16.48;10.18;;;;;;;11.38;100.00;102148.88;5272280;28;20020;-68
2023/06/01 05:54:38;;;;;;;16.35;11.40;;;;;;;11.33;100.00;102145.59;5272794;28;20125;-68
2023/06/01 05:57:09;;;;;;;26.17;11.68;;;;;;;11.37;100.00;102156.03;5271366;28;20035;-68
2023/06/01 05:59:42;;;;;;;15.10;9.95;;;;;;;11.38;100.00;102143.53;5277254;28;20378;-68
2023/06/01 06:02:14;;;;;;;17.33;9.95;;;;;;;11.48;100.00;102151.84;5263438;28;21016;-68
2023/06/01 06:04:45;;;;;;;17.95;10.57;;;;;;;11.58;100.00;102153.91;5276035;28;20035;-68
2023/06/01 06:07:17;;;;;;;14.98;10.40;;;;;;;11.73;100.00;102148.56;5280495;28;20028;-68
2023/06/01 06:09:48;;;;;;;16.45;9.68;;;;;;;11.79;100.00;102142.84;5275135;28;20035;-68
2023/06/01 06:12:20;;;;;;;16.60;10.48;;;;;;;11.85;100.00;102152.31;5274613;28;20036;-68
2023/06/01 06:14:51;;;;;;;18.00;9.57;;;;;;;11.99;100.00;102156.88;5277784;28;20031;-68
2023/06/01 06:17:23;;;;;;;18.40;10.10;;;;;;;11.97;100.00;102154.28;5269527;28;20119;-68
2023/06/01 06:19:54;;;;;;;17.27;10.13;;;;;;;12.05;100.00;102159.16;5273349;28;20029;-68
2023/06/01 06:22:25;;;;;;;20.00;9.88;;;;;;;11.99;100.00;102155.03;5273144;28;20031;-68
2023/06/01 06:24:57;;;;;;;14.40;10.07;;;;;;;12.13;100.00;102165.72;5269698;28;20071;-68
2023/06/01 06:27:28;;;;;;;16.60;9.30;;;;;;;12.18;100.00;102159.22;5277098;28;20028;-68
2023/06/01 06:30:00;;;;;;;16.63;9.65;;;;;;;12.24;100.00;102167.75;5275817;28;20120;-68
2023/06/01 06:32:31;;;;;;;17.30;10.93;;;;;;;12.12;100.00;102166.72;5277241;28;20116;-68
2023/06/01 06:35:03;;;;;;;16.77;10.60;;;;;;;12.16;100.00;102167.38;5276993;28;20020;-68
2023/06/01 06:37:34;;;;;;;16.42;10.57;;;;;;;12.10;100.00;102163.28;5275474;28;20386;-68
2023/06/01 06:40:06;;;;;;;19.05;10.18;;;;;;;12.06;100.00;102166.22;5270371;28;20032;-68
2023/06/01 06:42:38;;;;;;;15.55;10.30;;;;;;;12.05;100.00;102165.34;5272804;28;20111;-68
2023/06/01 06:45:10;;;;;;;19.15;9.77;;;;;;;12.05;100.00;102165.34;5274465;28;20069;-68
2023/06/01 06:47:41;;;;;;;18.48;11.10;;;;;;;12.14;100.00;102169.28;5271791;28;20396;-68
2023/06/01 06:50:13;;;;;;;19.70;10.57;;;;;;;12.07;100.00;102157.25;5276762;28;20039;-68
2023/06/01 06:52:44;;;;;;;16.77;9.95;;;;;;;12.02;100.00;102159.34;5271123;28;20089;-68
2023/06/01 06:55:16;;;;;;;19.00;10.77;;;;;;;12.03;100.00;102171.75;5271789;28;20119;-68
2023/06/01 06:57:47;;;;;;;16.95;10.02;;;;;;;12.07;100.00;102167.94;5271389;28;20437;-68
2023/06/01 07:00:20;;;;;;;18.42;10.50;;;;;;;12.05;100.00;102181.41;5271136;28;20029;-68
2023/06/01 07:02:51;;;;;;;15.63;10.05;;;;;;;12.10;100.00;102175.75;5270604;28;20118;-69
2023/06/01 07:05:23;;;;;;;16.77;10.32;;;;;;;12.21;100.00;102170.59;5265485;28;20049;-68
2023/06/01 07:07:54;;;;;;;16.65;10.73;;;;;;;12.37;100.00;102170.53;5271136;28;20047;-68
2023/06/01 07:10:26;;;;;;;15.98;10.18;;;;;;;12.53;100.00;102173.94;5266600;28;20033;-68
2023/06/01 07:12:57;;;;;;;16.42;10.65;;;;;;;12.74;100.00;102176.22;5270650;28;20062;-68
2023/06/01 07:15:29;;;;;;;19.67;10.50;;;;;;;12.93;100.00;102168.69;5266245;28;20062;-68
2023/06/01 07:18:00;;;;;;;16.60;9.40;;;;;;;13.06;100.00;102162.53;5265793;28;20543;-67
2023/06/01 07:20:32;;;;;;;14.75;9.68;;;;;;;13.04;100.00;102165.31;5273398;28;20028;-67
2023/06/01 07:23:03;;;;;;;16.95;10.00;;;;;;;13.09;100.00;102167.69;5271743;28;20112;-68
2023/06/01 07:25:35;;;;;;;16.77;10.02;;;;;;;13.12;100.00;102163.00;5272431;28;20068;-67
2023/06/01 07:28:07;;;;;;;16.63;9.85;;;;;;;13.09;100.00;102156.97;5272290;28;20561;-68
2023/06/01 07:30:38;;;;;;;16.75;10.13;;;;;;;13.08;100.00;102158.81;5274711;28;20082;-68
2023/06/01 07:33:09;;;;;;;15.30;9.90;;;;;;;13.14;100.00;102152.19;5272066;28;20989;-67
2023/06/01 07:35:41;;;;;;;15.82;9.63;;;;;;;13.16;100.00;102162.81;5269724;28;20029;-68
2023/06/01 07:38:12;;;;;;;16.45;9.75;;;;;;;13.17;100.00;102169.88;5273201;28;20142;-68
2023/06/01 07:40:44;;;;;;;17.85;10.35;;;;;;;13.12;100.00;102167.50;5270555;28;20020;-68
2023/06/01 07:43:15;;;;;;;14.50;9.52;;;;;;;13.24;100.00;102160.47;5271046;28;20097;-68
2023/06/01 07:45:46;;;;;;;14.80;9.30;;;;;;;13.22;100.00;102157.88;5270618;28;20189;-68
2023/06/01 07:48:18;;;;;;;14.05;9.80;;;;;;;13.31;100.00;102161.81;5270051;28;20036;-68
2023/06/01 07:50:50;;;;;;;16.95;10.25;;;;;;;13.33;100.00;102160.72;5269980;28;20033;-68
2023/06/01 07:53:22;;;;;;;15.85;9.60;;;;;;;13.48;100.00;102166.91;5271594;28;20020;-68
2023/06/01 07:55:53;;;;;;;15.27;9.80;;;;;;;13.46;100.00;102165.25;5269503;28;20399;-69
2023/06/01 07:58:25;;;;;;;17.75;10.77;;;;;;;13.53;100.00;102167.41;5269254;28;20063;-68
2023/06/01 08:00:57;;;;;;;17.10;10.10;;;;;;;13.65;100.00;102159.50;5266562;28;20082;-68
2023/06/01 08:03:28;;;;;;;16.20;10.10;;;;;;;13.81;100.00;102159.31;5271623;28;20382;-68
2023/06/01 08:06:02;;;;;;;13.95;10.35;;;;;;;13.84;100.00;102162.63;5273105;28;20052;-68
2023/06/01 08:08:33;;;;;;;15.85;10.90;;;;;;;13.90;100.00;102164.91;5268842;28;20032;-68
2023/06/01 08:11:05;;;;;;;15.43;10.07;;;;;;;14.00;100.00;102157.06;5272875;28;20488;-68
2023/06/01 08:13:36;;;;;;;15.82;9.18;;;;;;;14.12;100.00;102149.97;5267773;28;20538;-68
2023/06/01 08:16:08;;;;;;;16.08;10.63;;;;;;;14.23;100.00;102151.88;5269349;28;20021;-68
2023/06/01 08:18:39;;;;;;;16.10;9.52;;;;;;;14.39;100.00;102146.31;5272817;28;20074;-68
2023/06/01 08:21:11;;;;;;;15.93;9.90;;;;;;;14.40;100.00;102153.38;5271813;28;20390;-68
2023/06/01 08:23:43;;;;;;;15.88;9.43;;;;;;;14.39;100.00;102149.84;5272044;28;20025;-68
2023/06/01 08:26:14;;;;;;;18.52;10.38;;;;;;;14.45;100.00;102148.53;5271187;28;20092;-68
2023/06/01 08:28:51;;;;;;;16.85;9.60;;;;;;;14.47;100.00;102151.97;5270644;28;20097;-68
2023/06/01 08:31:24;;;;;;;16.45;9.40;;;;;;;14.48;100.00;102148.31;5272608;28;20040;-68
2023/06/01 08:33:56;;;;;;;14.77;9.52;;;;;;;14.66;100.00;102154.22;5270040;28;20024;-68
2023/06/01 08:36:27;;;;;;;16.25;9.60;;;;;;;14.69;100.00;102152.16;5272124;28;20046;-68
2023/06/01 08:38:59;;;;;;;16.92;10.70;;;;;;;14.69;100.00;102148.63;5271282;28;20484;-68
2023/06/01 08:41:40;;;;;;;17.23;9.55;;;;;;;14.86;100.00;102144.69;5272396;28;20035;-68
2023/06/01 08:44:14;;;;;;;14.35;9.55;;;;;;;15.00;100.00;102144.53;5270932;28;20028;-68
2023/06/01 08:46:46;;;;;;;17.67;10.38;;;;;;;14.97;100.00;102142.06;5268890;28;20025;-68
2023/06/01 08:49:19;;;;;;;17.00;10.20;;;;;;;14.96;100.00;102143.03;5269327;28;20055;-68
2023/06/01 08:51:55;;;;;;;16.88;10.25;;;;;;;15.01;100.00;102142.69;5271590;28;20051;-68
2023/06/01 08:54:30;;;;;;;15.43;10.82;;;;;;;14.86;100.00;102142.00;5270476;28;20016;-68
2023/06/01 08:57:07;;;;;;;14.98;9.93;;;;;;;14.90;100.00;102133.59;5267225;28;20039;-68
2023/06/01 08:59:39;;;;;;;14.68;10.15;;;;;;;15.05;100.00;102138.78;5270283;28;20028;-68
2023/06/01 09:02:10;;;;;;;17.52;9.65;;;;;;;15.07;100.00;102135.03;5267989;28;20490;-68
2023/06/01 09:04:44;;;;;;;16.92;9.85;;;;;;;15.20;100.00;102128.72;5269897;28;20105;-69
2023/06/01 09:07:16;;;;;;;18.15;10.40;;;;;;;15.18;100.00;102136.03;5268394;28;20043;-68
2023/06/01 09:09:47;;;;;;;16.80;10.13;;;;;;;15.27;100.00;102129.97;5270026;28;20036;-68
2023/06/01 09:12:24;;;;;;;16.55;10.68;;;;;;;15.29;100.00;102131.56;5267427;28;20025;-68
2023/06/01 09:15:16;;;;;;;14.40;10.38;;;;;;;15.36;100.00;102118.53;5271087;28;20028;-68
2023/06/01 09:17:50;;;;;;;16.48;10.60;;;;;;;15.36;100.00;102128.41;5267297;28;20060;-68
2023/06/01 09:20:24;;;;;;;18.80;10.75;;;;;;;15.47;100.00;102115.88;5270140;28;20029;-68
2023/06/01 09:22:56;;;;;;;17.65;11.27;;;;;;;15.61;100.00;102114.81;5262526;28;20075;-69
2023/06/01 09:25:29;;;;;;;16.80;10.90;;;;;;;15.66;100.00;102114.44;5272059;28;20426;-68
2023/06/01 09:28:01;;;;;;;17.00;11.07;;;;;;;15.74;100.00;102117.41;5270019;28;20479;-68
2023/06/01 09:30:41;;;;;;;17.48;10.63;;;;;;;15.82;100.00;102114.09;5267806;28;20130;-68
2023/06/01 09:33:20;;;;;;;17.75;10.80;;;;;;;15.99;100.00;102118.16;5270460;28;20160;-68
2023/06/01 09:35:51;;;;;;;16.17;10.90;;;;;;;15.97;100.00;102107.50;5268518;28;20036;-68
2023/06/01 09:38:25;;;;;;;17.65;10.73;;;;;;;15.95;100.00;102104.09;5270880;28;20466;-69
2023/06/01 09:41:03;;;;;;;16.92;11.15;;;;;;;15.98;100.00;102105.69;5269287;28;20027;-68
2023/06/01 09:43:37;;;;;;;15.90;11.15;;;;;;;16.08;100.00;102093.22;5270979;28;20483;-68
2023/06/01 09:46:13;;;;;;;19.13;11.30;;;;;;;16.04;100.00;102091.75;5268599;28;20044;-68
2023/06/01 09:48:45;;;;;;;13.18;10.18;;;;;;;16.16;100.00;102093.44;5272956;28;20094;-68
2023/06/01 09:51:29;;;;;;;15.52;10.35;;;;;;;16.36;100.00;102096.38;5272878;28;20024;-69
2023/06/01 09:54:00;;;;;;;18.85;10.95;;;;;;;16.44;100.00;102099.31;5273548;28;20028;-68
2023/06/01 09:56:44;;;;;;;18.70;10.90;;;;;;;16.58;100.00;102090.94;5272616;28;20078;-68
2023/06/01 09:59:16;;;;;;;17.27;11.23;;;;;;;16.45;100.00;102101.00;5268821;28;20029;-68
2023/06/01 10:01:53;;;;;;;15.73;10.70;;;;;;;16.49;100.00;102090.84;5270942;28;20048;-68
2023/06/01 10:04:28;;;;;;;15.02;10.35;;;;;;;16.56;100.00;102095.59;5265445;28;20032;-69
2023/06/01 10:07:00;;;;;;;17.40;10.10;;;;;;;16.60;100.00;102085.44;5269401;28;20048;-68
2023/06/01 10:09:35;;;;;;;17.38;9.63;;;;;;;16.79;100.00;102092.84;5271797;28;20047;-68
2023/06/01 10:12:08;;;;;;;17.23;10.85;;;;;;;16.83;100.00;102099.72;5268759;28;20150;-68
2023/06/01 10:14:40;;;;;;;17.23;10.60;;;;;;;16.82;100.00;102085.41;5270024;28;20036;-68
2023/06/01 10:17:14;;;;;;;21.52;10.80;;;;;;;16.93;100.00;102084.50;5272211;28;20461;-69
2023/06/01 10:19:46;;;;;;;17.75;10.93;;;;;;;16.89;100.00;102085.72;5270435;28;20043;-68
2023/06/01 10:22:17;;;;;;;14.63;10.70;;;;;;;16.89;100.00;102090.28;5269561;28;20017;-68
2023/06/01 10:24:49;;;;;;;19.35;10.88;;;;;;;16.96;100.00;102092.31;5271711;28;20028;-68
2023/06/01 10:27:29;;;;;;;17.88;11.25;;;;;;;16.97;100.00;102085.09;5273020;28;20024;-68
2023/06/01 10:30:00;;;;;;;17.13;11.00;;;;;;;17.01;100.00;102081.16;5271124;28;20434;-68
2023/06/01 10:32:47;;;;;;;15.07;10.15;;;;;;;17.15;100.00;102074.59;5265493;28;20628;-68
2023/06/01 10:35:32;;;;;;;20.92;11.27;;;;;;;17.05;100.00;102077.22;5261745;28;20043;-68
2023/06/01 10:38:06;;;;;;;17.73;11.50;;;;;;;17.22;100.00;102073.94;5274463;28;20055;-68
2023/06/01 10:40:44;;;;;;;21.27;11.50;;;;;;;17.36;100.00;102085.41;5273212;28;20390;-68
2023/06/01 10:43:40;;;;;;;18.25;12.23;;;;;;;17.37;100.00;102068.22;5268898;28;20360;-69
2023/06/01 10:46:40;;;;;;;20.80;11.98;;;;;;;17.51;100.00;102072.41;5271595;28;20439;-68
2023/06/01 10:49:12;;;;;;;16.40;11.65;;;;;;;17.60;100.00;102068.91;5271169;28;20044;-68
2023/06/01 10:51:43;;;;;;;17.73;11.60;;;;;;;17.66;100.00;102081.03;5271586;28;20029;-69
2023/06/01 10:54:29;;;;;;;15.95;11.00;;;;;;;17.82;100.00;102073.31;5270859;28;20039;-69
2023/06/01 10:57:19;;;;;;;21.83;12.00;;;;;;;18.00;100.00;102069.00;5271353;28;20115;-68
2023/06/01 11:00:15;;;;;;;20.17;12.35;;;;;;;17.99;100.00;102070.00;5274690;28;20073;-68
2023/06/01 11:02:59;;;;;;;16.95;11.75;;;;;;;18.03;100.00;102065.19;5272627;28;20086;-68
2023/06/01 11:05:33;;;;;;;17.27;12.07;;;;;;;18.01;100.00;102062.63;5266541;28;20044;-68
2023/06/01 11:08:29;;;;;;;19.45;11.30;;;;;;;17.99;100.00;102066.47;5276822;28;20126;-69
2023/06/01 11:11:03;;;;;;;17.58;11.02;;;;;;;18.13;100.00;102054.41;5269580;28;20052;-69
2023/06/01 11:13:36;;;;;;;14.85;11.18;;;;;;;18.08;100.00;102059.38;5273298;28;20036;-69
2023/06/01 11:16:09;;;;;;;17.83;10.98;;;;;;;18.08;100.00;102060.22;5275214;28;20033;-68
2023/06/01 11:18:41;;;;;;;16.77;11.10;;;;;;;18.16;100.00;102057.72;5267768;28;20040;-69
2023/06/01 11:21:18;;;;;;;16.25;11.07;;;;;;;18.18;100.00;102052.16;5267548;28;20032;-69
2023/06/01 11:23:50;;;;;;;18.15;12.20;;;;;;;18.14;100.00;102054.28;5272730;28;20136;-67
2023/06/01 11:26:29;;;;;;;17.73;12.07;;;;;;;18.12;100.00;102048.16;5271902;28;20108;-68
2023/06/01 11:29:06;;;;;;;18.73;12.80;;;;;;;18.13;100.00;102047.16;5268468;28;20029;-68
2023/06/01 11:31:44;;;;;;;16.33;11.95;;;;;;;18.18;100.00;102039.50;5262631;28;20042;-68
2023/06/01 11:34:20;;;;;;;17.88;12.63;;;;;;;18.32;100.00;102053.63;5267468;28;20541;-69